sensor_id;sensor_type;location;lat;lon;timestamp;temperature;humidity
3051;DHT22;1535;51.098;6.414;2023-08-01T00:01:33;17.70;99.90
3051;DHT22;1535;51.098;6.414;2023-08-01T00:04:00;17.70;99.90
3051;DHT22;1535;51.098;6.414;2023-08-01T00:06:27;17.60;99.90
3051;DHT22;1535;51.098;6.414;2023-08-01T00:08:55;17.60;99.90
3051;DHT22;1535;51.098;6.414;2023-08-01T00:11:22;17.70;99.90
3051;DHT22;1535;51.098;6.414;2023-08-01T00:13:49;17.70;99.90
3051;DHT22;1535;51.098;6.414;2023-08-01T00:16:16;17.70;99.90
3051;DHT22;1535;51.098;6.414;2023-08-01T00:18:44;17.60;99.90
3051;DHT22;1535;51.098;6.414;2023-08-01T00:21:11;17.70;99.90
3051;DHT22;1535;51.098;6.414;2023-08-01T00:23:38;17.70;99.90
3051;DHT22;1535;51.098;6.414;2023-08-01T00:26:06;17.60;99.90
3051;DHT22;1535;51.098;6.414;2023-08-01T00:28:33;17.60;99.90
3051;DHT22;1535;51.098;6.414;2023-08-01T00:31:04;17.60;99.90
3051;DHT22;1535;51.098;6.414;2023-08-01T00:33:31;17.50;99.90
3051;DHT22;1535;51.098;6.414;2023-08-01T00:35:57;17.40;99.90
3051;DHT22;1535;51.098;6.414;2023-08-01T00:38:25;17.40;99.90
3051;DHT22;1535;51.098;6.414;2023-08-01T00:40:52;17.40;99.90
3051;DHT22;1535;51.098;6.414;2023-08-01T00:43:20;17.50;99.90
3051;DHT22;1535;51.098;6.414;2023-08-01T00:45:47;17.50;99.90
3051;DHT22;1535;51.098;6.414;2023-08-01T00:48:14;17.40;99.90
3051;DHT22;1535;51.098;6.414;2023-08-01T00:50:41;17.50;99.90
3051;DHT22;1535;51.098;6.414;2023-08-01T00:53:09;17.50;99.90
3051;DHT22;1535;51.098;6.414;2023-08-01T00:55:37;17.50;99.90
3051;DHT22;1535;51.098;6.414;2023-08-01T00:58:04;17.40;99.90
3051;DHT22;1535;51.098;6.414;2023-08-01T01:00:32;17.40;99.90
3051;DHT22;1535;51.098;6.414;2023-08-01T01:03:01;17.40;99.90
3051;DHT22;1535;51.098;6.414;2023-08-01T01:05:31;17.40;99.90
3051;DHT22;1535;51.098;6.414;2023-08-01T01:08:03;17.30;99.90
3051;DHT22;1535;51.098;6.414;2023-08-01T01:10:30;17.30;99.90
3051;DHT22;1535;51.098;6.414;2023-08-01T01:12:58;17.30;99.90
3051;DHT22;1535;51.098;6.414;2023-08-01T01:15:25;17.30;99.90
3051;DHT22;1535;51.098;6.414;2023-08-01T01:17:53;17.20;99.90
3051;DHT22;1535;51.098;6.414;2023-08-01T01:20:23;17.20;99.90
3051;DHT22;1535;51.098;6.414;2023-08-01T01:22:52;17.20;99.90
3051;DHT22;1535;51.098;6.414;2023-08-01T01:25:20;17.20;99.90
3051;DHT22;1535;51.098;6.414;2023-08-01T01:27:48;17.20;99.90
3051;DHT22;1535;51.098;6.414;2023-08-01T01:30:16;17.20;99.90
3051;DHT22;1535;51.098;6.414;2023-08-01T01:32:45;17.20;99.90
3051;DHT22;1535;51.098;6.414;2023-08-01T01:35:13;17.20;99.90
3051;DHT22;1535;51.098;6.414;2023-08-01T01:37:40;17.10;99.90
3051;DHT22;1535;51.098;6.414;2023-08-01T01:40:11;17.10;99.90
3051;DHT22;1535;51.098;6.414;2023-08-01T01:42:38;17.10;99.90
3051;DHT22;1535;51.098;6.414;2023-08-01T01:45:06;17.10;99.90
3051;DHT22;1535;51.098;6.414;2023-08-01T01:47:33;17.00;99.90
3051;DHT22;1535;51.098;6.414;2023-08-01T01:50:00;17.00;99.90
3051;DHT22;1535;51.098;6.414;2023-08-01T01:52:28;17.00;99.90
3051;DHT22;1535;51.098;6.414;2023-08-01T01:54:56;17.00;99.90
3051;DHT22;1535;51.098;6.414;2023-08-01T01:57:25;17.00;99.90
3051;DHT22;1535;51.098;6.414;2023-08-01T01:59:52;17.00;99.90
3051;DHT22;1535;51.098;6.414;2023-08-01T02:02:19;17.00;99.90
3051;DHT22;1535;51.098;6.414;2023-08-01T02:04:47;17.00;99.90
3051;DHT22;1535;51.098;6.414;2023-08-01T02:07:14;17.00;99.90
3051;DHT22;1535;51.098;6.414;2023-08-01T02:09:41;17.00;99.90
3051;DHT22;1535;51.098;6.414;2023-08-01T02:12:09;17.00;99.90
3051;DHT22;1535;51.098;6.414;2023-08-01T02:14:41;17.00;99.90
3051;DHT22;1535;51.098;6.414;2023-08-01T02:17:08;16.90;99.90
3051;DHT22;1535;51.098;6.414;2023-08-01T02:19:35;16.90;99.90
3051;DHT22;1535;51.098;6.414;2023-08-01T02:22:02;16.80;99.90
3051;DHT22;1535;51.098;6.414;2023-08-01T02:24:30;16.80;99.90
3051;DHT22;1535;51.098;6.414;2023-08-01T02:26:57;16.80;99.90
3051;DHT22;1535;51.098;6.414;2023-08-01T02:29:24;16.80;99.90
3051;DHT22;1535;51.098;6.414;2023-08-01T02:31:52;16.80;99.90
3051;DHT22;1535;51.098;6.414;2023-08-01T02:34:20;16.80;99.90
3051;DHT22;1535;51.098;6.414;2023-08-01T02:36:47;16.70;99.90
3051;DHT22;1535;51.098;6.414;2023-08-01T02:39:15;16.70;99.90
3051;DHT22;1535;51.098;6.414;2023-08-01T02:41:41;16.70;99.90
3051;DHT22;1535;51.098;6.414;2023-08-01T02:44:08;16.70;99.90
3051;DHT22;1535;51.098;6.414;2023-08-01T02:46:35;16.60;99.90
3051;DHT22;1535;51.098;6.414;2023-08-01T02:49:03;16.50;99.90
3051;DHT22;1535;51.098;6.414;2023-08-01T02:51:30;16.40;99.90
3051;DHT22;1535;51.098;6.414;2023-08-01T02:53:56;16.40;99.90
3051;DHT22;1535;51.098;6.414;2023-08-01T02:56:23;16.40;99.90
3051;DHT22;1535;51.098;6.414;2023-08-01T02:58:50;16.30;99.90
3051;DHT22;1535;51.098;6.414;2023-08-01T03:01:17;16.30;99.90
3051;DHT22;1535;51.098;6.414;2023-08-01T03:03:46;16.10;99.90
3051;DHT22;1535;51.098;6.414;2023-08-01T03:06:14;16.00;99.90
3051;DHT22;1535;51.098;6.414;2023-08-01T03:08:42;15.90;99.90
3051;DHT22;1535;51.098;6.414;2023-08-01T03:11:09;15.90;99.90
3051;DHT22;1535;51.098;6.414;2023-08-01T03:13:36;15.80;99.90
3051;DHT22;1535;51.098;6.414;2023-08-01T03:16:03;15.80;99.90
3051;DHT22;1535;51.098;6.414;2023-08-01T03:18:31;15.80;99.90
3051;DHT22;1535;51.098;6.414;2023-08-01T03:20:58;15.70;99.90
3051;DHT22;1535;51.098;6.414;2023-08-01T03:23:26;15.70;99.90
3051;DHT22;1535;51.098;6.414;2023-08-01T03:25:52;15.60;99.90
3051;DHT22;1535;51.098;6.414;2023-08-01T03:28:19;15.50;99.90
3051;DHT22;1535;51.098;6.414;2023-08-01T03:30:46;15.50;99.90
3051;DHT22;1535;51.098;6.414;2023-08-01T03:33:15;15.50;99.90
3051;DHT22;1535;51.098;6.414;2023-08-01T03:35:42;15.50;99.90
3051;DHT22;1535;51.098;6.414;2023-08-01T03:38:10;15.40;99.90
3051;DHT22;1535;51.098;6.414;2023-08-01T03:40:39;15.40;99.90
3051;DHT22;1535;51.098;6.414;2023-08-01T03:43:06;15.40;99.90
3051;DHT22;1535;51.098;6.414;2023-08-01T03:45:35;15.40;99.90
3051;DHT22;1535;51.098;6.414;2023-08-01T03:48:03;15.30;99.90
3051;DHT22;1535;51.098;6.414;2023-08-01T03:50:30;15.30;99.90
3051;DHT22;1535;51.098;6.414;2023-08-01T03:52:57;15.30;99.90
3051;DHT22;1535;51.098;6.414;2023-08-01T03:55:25;15.30;99.90
3051;DHT22;1535;51.098;6.414;2023-08-01T03:57:53;15.30;99.90
3051;DHT22;1535;51.098;6.414;2023-08-01T04:00:21;15.40;99.90
3051;DHT22;1535;51.098;6.414;2023-08-01T04:02:49;15.40;99.90
3051;DHT22;1535;51.098;6.414;2023-08-01T04:05:16;15.50;99.90
3051;DHT22;1535;51.098;6.414;2023-08-01T04:07:44;15.50;99.90
3051;DHT22;1535;51.098;6.414;2023-08-01T04:10:10;15.60;99.90
3051;DHT22;1535;51.098;6.414;2023-08-01T04:12:38;15.60;99.90
3051;DHT22;1535;51.098;6.414;2023-08-01T04:15:08;15.60;99.90
3051;DHT22;1535;51.098;6.414;2023-08-01T04:17:35;15.60;99.90
3051;DHT22;1535;51.098;6.414;2023-08-01T04:20:03;15.60;99.90
3051;DHT22;1535;51.098;6.414;2023-08-01T04:22:31;15.50;99.90
3051;DHT22;1535;51.098;6.414;2023-08-01T04:24:58;15.50;99.90
3051;DHT22;1535;51.098;6.414;2023-08-01T04:27:25;15.50;99.90
3051;DHT22;1535;51.098;6.414;2023-08-01T04:29:51;15.60;99.90
3051;DHT22;1535;51.098;6.414;2023-08-01T04:32:21;15.60;99.90
3051;DHT22;1535;51.098;6.414;2023-08-01T04:34:48;15.60;99.90
3051;DHT22;1535;51.098;6.414;2023-08-01T04:37:15;15.50;99.90
3051;DHT22;1535;51.098;6.414;2023-08-01T04:39:46;15.60;99.90
3051;DHT22;1535;51.098;6.414;2023-08-01T04:42:15;15.60;99.90
3051;DHT22;1535;51.098;6.414;2023-08-01T04:44:42;15.50;99.90
3051;DHT22;1535;51.098;6.414;2023-08-01T04:47:09;15.50;99.90
3051;DHT22;1535;51.098;6.414;2023-08-01T04:49:37;15.40;99.90
3051;DHT22;1535;51.098;6.414;2023-08-01T04:52:06;15.40;99.90
3051;DHT22;1535;51.098;6.414;2023-08-01T04:54:33;15.40;99.90
3051;DHT22;1535;51.098;6.414;2023-08-01T04:57:01;15.30;99.90
3051;DHT22;1535;51.098;6.414;2023-08-01T04:59:29;15.30;99.90
3051;DHT22;1535;51.098;6.414;2023-08-01T05:01:56;15.30;99.90
3051;DHT22;1535;51.098;6.414;2023-08-01T05:04:23;15.20;99.90
3051;DHT22;1535;51.098;6.414;2023-08-01T05:06:52;15.30;99.90
3051;DHT22;1535;51.098;6.414;2023-08-01T05:09:19;15.30;99.90
3051;DHT22;1535;51.098;6.414;2023-08-01T05:11:47;15.40;99.90
3051;DHT22;1535;51.098;6.414;2023-08-01T05:14:17;15.50;99.90
3051;DHT22;1535;51.098;6.414;2023-08-01T05:16:43;15.50;99.90
3051;DHT22;1535;51.098;6.414;2023-08-01T05:19:10;15.50;99.90
3051;DHT22;1535;51.098;6.414;2023-08-01T05:21:37;15.60;99.90
3051;DHT22;1535;51.098;6.414;2023-08-01T05:24:07;15.70;99.90
3051;DHT22;1535;51.098;6.414;2023-08-01T05:26:34;15.80;99.90
3051;DHT22;1535;51.098;6.414;2023-08-01T05:29:00;15.70;99.90
3051;DHT22;1535;51.098;6.414;2023-08-01T05:31:27;15.80;99.90
3051;DHT22;1535;51.098;6.414;2023-08-01T05:33:54;15.80;99.90
3051;DHT22;1535;51.098;6.414;2023-08-01T05:36:22;15.90;99.90
3051;DHT22;1535;51.098;6.414;2023-08-01T05:38:48;16.00;99.90
3051;DHT22;1535;51.098;6.414;2023-08-01T05:41:17;16.00;99.90
3051;DHT22;1535;51.098;6.414;2023-08-01T05:43:46;16.10;99.90
3051;DHT22;1535;51.098;6.414;2023-08-01T05:46:13;16.10;99.90
3051;DHT22;1535;51.098;6.414;2023-08-01T05:48:40;16.20;99.90
3051;DHT22;1535;51.098;6.414;2023-08-01T05:51:08;16.10;99.90
3051;DHT22;1535;51.098;6.414;2023-08-01T05:53:36;16.10;99.90
3051;DHT22;1535;51.098;6.414;2023-08-01T05:56:03;16.20;99.90
3051;DHT22;1535;51.098;6.414;2023-08-01T05:58:32;16.30;99.90
3051;DHT22;1535;51.098;6.414;2023-08-01T06:00:59;16.50;99.90
3051;DHT22;1535;51.098;6.414;2023-08-01T06:03:26;16.60;99.90
3051;DHT22;1535;51.098;6.414;2023-08-01T06:05:53;16.50;99.90
3051;DHT22;1535;51.098;6.414;2023-08-01T06:08:20;16.60;99.90
3051;DHT22;1535;51.098;6.414;2023-08-01T06:10:48;16.60;99.90
3051;DHT22;1535;51.098;6.414;2023-08-01T06:13:15;16.70;99.90
3051;DHT22;1535;51.098;6.414;2023-08-01T06:15:44;16.70;99.90
3051;DHT22;1535;51.098;6.414;2023-08-01T06:18:11;16.80;99.90
3051;DHT22;1535;51.098;6.414;2023-08-01T06:20:38;16.80;99.90
3051;DHT22;1535;51.098;6.414;2023-08-01T06:23:06;16.90;99.90
3051;DHT22;1535;51.098;6.414;2023-08-01T06:25:33;16.90;99.90
3051;DHT22;1535;51.098;6.414;2023-08-01T06:28:00;16.90;99.90
3051;DHT22;1535;51.098;6.414;2023-08-01T06:30:27;16.90;99.90
3051;DHT22;1535;51.098;6.414;2023-08-01T06:32:57;16.90;99.90
3051;DHT22;1535;51.098;6.414;2023-08-01T06:35:25;16.90;99.90
3051;DHT22;1535;51.098;6.414;2023-08-01T06:37:52;17.00;99.90
3051;DHT22;1535;51.098;6.414;2023-08-01T06:40:19;17.20;99.90
3051;DHT22;1535;51.098;6.414;2023-08-01T06:42:47;17.20;99.90
3051;DHT22;1535;51.098;6.414;2023-08-01T06:45:14;17.20;99.90
3051;DHT22;1535;51.098;6.414;2023-08-01T06:47:42;17.30;99.90
3051;DHT22;1535;51.098;6.414;2023-08-01T06:50:10;17.30;99.90
3051;DHT22;1535;51.098;6.414;2023-08-01T06:52:37;17.50;99.90
3051;DHT22;1535;51.098;6.414;2023-08-01T06:55:05;17.50;99.90
3051;DHT22;1535;51.098;6.414;2023-08-01T06:57:33;17.60;99.90
3051;DHT22;1535;51.098;6.414;2023-08-01T07:00:00;17.70;99.90
3051;DHT22;1535;51.098;6.414;2023-08-01T07:02:28;17.80;99.90
3051;DHT22;1535;51.098;6.414;2023-08-01T07:04:55;17.90;99.90
3051;DHT22;1535;51.098;6.414;2023-08-01T07:07:24;17.80;99.90
3051;DHT22;1535;51.098;6.414;2023-08-01T07:09:51;17.80;99.90
3051;DHT22;1535;51.098;6.414;2023-08-01T07:12:19;17.70;99.90
3051;DHT22;1535;51.098;6.414;2023-08-01T07:14:45;17.80;99.90
3051;DHT22;1535;51.098;6.414;2023-08-01T07:17:12;18.00;99.90
3051;DHT22;1535;51.098;6.414;2023-08-01T07:19:39;18.00;99.90
3051;DHT22;1535;51.098;6.414;2023-08-01T07:22:06;18.00;99.90
3051;DHT22;1535;51.098;6.414;2023-08-01T07:24:35;18.00;99.90
3051;DHT22;1535;51.098;6.414;2023-08-01T07:27:03;18.10;99.90
3051;DHT22;1535;51.098;6.414;2023-08-01T07:29:29;18.10;99.90
3051;DHT22;1535;51.098;6.414;2023-08-01T07:31:57;18.30;99.90
3051;DHT22;1535;51.098;6.414;2023-08-01T07:34:24;18.40;99.90
3051;DHT22;1535;51.098;6.414;2023-08-01T07:36:50;18.40;99.90
3051;DHT22;1535;51.098;6.414;2023-08-01T07:39:17;18.30;99.90
3051;DHT22;1535;51.098;6.414;2023-08-01T07:41:46;18.20;99.90
3051;DHT22;1535;51.098;6.414;2023-08-01T07:44:13;18.20;99.90
3051;DHT22;1535;51.098;6.414;2023-08-01T07:46:40;18.40;99.90
3051;DHT22;1535;51.098;6.414;2023-08-01T07:49:07;18.60;99.90
3051;DHT22;1535;51.098;6.414;2023-08-01T07:51:34;18.80;99.90
3051;DHT22;1535;51.098;6.414;2023-08-01T07:54:01;18.90;99.90
3051;DHT22;1535;51.098;6.414;2023-08-01T07:56:28;19.00;99.90
3051;DHT22;1535;51.098;6.414;2023-08-01T07:58:56;18.90;99.90
3051;DHT22;1535;51.098;6.414;2023-08-01T08:01:23;18.80;99.90
3051;DHT22;1535;51.098;6.414;2023-08-01T08:03:50;18.70;99.90
3051;DHT22;1535;51.098;6.414;2023-08-01T08:06:17;18.80;99.90
3051;DHT22;1535;51.098;6.414;2023-08-01T08:08:46;18.60;99.90
3051;DHT22;1535;51.098;6.414;2023-08-01T08:11:13;18.50;99.90
3051;DHT22;1535;51.098;6.414;2023-08-01T08:13:42;18.60;99.90
3051;DHT22;1535;51.098;6.414;2023-08-01T08:16:11;18.90;99.90
3051;DHT22;1535;51.098;6.414;2023-08-01T08:18:38;19.10;99.90
3051;DHT22;1535;51.098;6.414;2023-08-01T08:21:05;19.50;99.90
3051;DHT22;1535;51.098;6.414;2023-08-01T08:23:31;19.50;99.90
3051;DHT22;1535;51.098;6.414;2023-08-01T08:25:58;19.50;99.90
3051;DHT22;1535;51.098;6.414;2023-08-01T08:28:29;19.30;99.90
3051;DHT22;1535;51.098;6.414;2023-08-01T08:30:56;19.20;99.90
3051;DHT22;1535;51.098;6.414;2023-08-01T08:33:24;19.60;99.90
3051;DHT22;1535;51.098;6.414;2023-08-01T08:35:52;19.60;99.90
3051;DHT22;1535;51.098;6.414;2023-08-01T08:38:19;19.50;99.90
3051;DHT22;1535;51.098;6.414;2023-08-01T08:40:55;19.60;99.90
3051;DHT22;1535;51.098;6.414;2023-08-01T08:43:23;19.60;99.90
3051;DHT22;1535;51.098;6.414;2023-08-01T08:45:50;19.60;99.90
3051;DHT22;1535;51.098;6.414;2023-08-01T08:48:20;19.40;99.90
3051;DHT22;1535;51.098;6.414;2023-08-01T08:50:49;19.40;99.90
3051;DHT22;1535;51.098;6.414;2023-08-01T08:53:17;19.60;99.90
3051;DHT22;1535;51.098;6.414;2023-08-01T08:55:46;20.00;99.90
3051;DHT22;1535;51.098;6.414;2023-08-01T08:58:13;19.90;99.90
3051;DHT22;1535;51.098;6.414;2023-08-01T09:00:42;20.30;99.90
3051;DHT22;1535;51.098;6.414;2023-08-01T09:03:10;20.50;99.90
3051;DHT22;1535;51.098;6.414;2023-08-01T09:05:44;20.90;99.90
3051;DHT22;1535;51.098;6.414;2023-08-01T09:08:17;21.30;99.90
3051;DHT22;1535;51.098;6.414;2023-08-01T09:10:45;21.30;99.90
3051;DHT22;1535;51.098;6.414;2023-08-01T09:13:12;21.40;99.90
3051;DHT22;1535;51.098;6.414;2023-08-01T09:15:42;21.40;99.90
3051;DHT22;1535;51.098;6.414;2023-08-01T09:18:09;21.20;99.90
3051;DHT22;1535;51.098;6.414;2023-08-01T09:20:46;21.00;99.90
3051;DHT22;1535;51.098;6.414;2023-08-01T09:23:16;20.50;99.90
3051;DHT22;1535;51.098;6.414;2023-08-01T09:25:44;20.40;99.90
3051;DHT22;1535;51.098;6.414;2023-08-01T09:28:19;20.80;99.90
3051;DHT22;1535;51.098;6.414;2023-08-01T09:30:48;21.00;99.90
3051;DHT22;1535;51.098;6.414;2023-08-01T09:33:16;21.00;99.90
3051;DHT22;1535;51.098;6.414;2023-08-01T09:35:43;20.80;99.90
3051;DHT22;1535;51.098;6.414;2023-08-01T09:38:12;21.10;99.90
3051;DHT22;1535;51.098;6.414;2023-08-01T09:40:43;21.20;99.90
3051;DHT22;1535;51.098;6.414;2023-08-01T09:43:11;21.50;99.90
3051;DHT22;1535;51.098;6.414;2023-08-01T09:45:48;21.90;99.90
3051;DHT22;1535;51.098;6.414;2023-08-01T09:48:22;21.80;99.90
3051;DHT22;1535;51.098;6.414;2023-08-01T09:50:50;22.30;99.90
3051;DHT22;1535;51.098;6.414;2023-08-01T09:53:16;22.50;99.90
3051;DHT22;1535;51.098;6.414;2023-08-01T09:55:46;22.40;99.90
3051;DHT22;1535;51.098;6.414;2023-08-01T09:58:17;22.20;99.90
3051;DHT22;1535;51.098;6.414;2023-08-01T10:00:49;21.80;99.90
3051;DHT22;1535;51.098;6.414;2023-08-01T10:03:16;21.80;99.90
3051;DHT22;1535;51.098;6.414;2023-08-01T10:05:44;22.10;99.90
3051;DHT22;1535;51.098;6.414;2023-08-01T10:08:12;22.30;99.90
3051;DHT22;1535;51.098;6.414;2023-08-01T10:10:40;22.20;99.90
3051;DHT22;1535;51.098;6.414;2023-08-01T10:13:09;21.80;99.90
3051;DHT22;1535;51.098;6.414;2023-08-01T10:15:39;21.80;99.90
3051;DHT22;1535;51.098;6.414;2023-08-01T10:18:06;22.20;99.90
3051;DHT22;1535;51.098;6.414;2023-08-01T10:20:33;22.50;99.90
3051;DHT22;1535;51.098;6.414;2023-08-01T10:23:02;22.50;99.90
3051;DHT22;1535;51.098;6.414;2023-08-01T10:25:30;22.30;99.90
3051;DHT22;1535;51.098;6.414;2023-08-01T10:27:58;22.20;99.90
3051;DHT22;1535;51.098;6.414;2023-08-01T10:30:28;22.60;99.90
3051;DHT22;1535;51.098;6.414;2023-08-01T10:32:57;22.60;99.90
3051;DHT22;1535;51.098;6.414;2023-08-01T10:35:34;22.50;99.90
3051;DHT22;1535;51.098;6.414;2023-08-01T10:38:06;22.20;99.90
3051;DHT22;1535;51.098;6.414;2023-08-01T10:40:37;22.00;99.90
3051;DHT22;1535;51.098;6.414;2023-08-01T10:43:05;21.90;99.90
3051;DHT22;1535;51.098;6.414;2023-08-01T10:45:34;22.60;99.90
3051;DHT22;1535;51.098;6.414;2023-08-01T10:48:08;23.30;99.90
3051;DHT22;1535;51.098;6.414;2023-08-01T10:50:36;23.70;99.90
3051;DHT22;1535;51.098;6.414;2023-08-01T10:53:04;23.60;99.90
3051;DHT22;1535;51.098;6.414;2023-08-01T10:55:42;23.40;99.90
3051;DHT22;1535;51.098;6.414;2023-08-01T10:58:09;23.90;99.90
3051;DHT22;1535;51.098;6.414;2023-08-01T11:00:37;24.00;99.90
3051;DHT22;1535;51.098;6.414;2023-08-01T11:03:04;24.70;99.90
3051;DHT22;1535;51.098;6.414;2023-08-01T11:05:32;25.50;99.90
3051;DHT22;1535;51.098;6.414;2023-08-01T11:08:00;26.00;99.90
3051;DHT22;1535;51.098;6.414;2023-08-01T11:10:28;25.90;99.90
3051;DHT22;1535;51.098;6.414;2023-08-01T11:12:55;25.20;99.90
3051;DHT22;1535;51.098;6.414;2023-08-01T11:15:22;25.30;99.90
3051;DHT22;1535;51.098;6.414;2023-08-01T11:17:52;24.90;99.90
3051;DHT22;1535;51.098;6.414;2023-08-01T11:20:20;25.10;99.90
3051;DHT22;1535;51.098;6.414;2023-08-01T11:22:53;24.70;99.90
3051;DHT22;1535;51.098;6.414;2023-08-01T11:25:30;24.70;99.90
3051;DHT22;1535;51.098;6.414;2023-08-01T11:27:57;24.70;99.90
3051;DHT22;1535;51.098;6.414;2023-08-01T11:30:30;24.10;99.90
3051;DHT22;1535;51.098;6.414;2023-08-01T11:33:00;22.80;99.90
3051;DHT22;1535;51.098;6.414;2023-08-01T11:35:28;22.20;99.90
3051;DHT22;1535;51.098;6.414;2023-08-01T11:37:55;21.60;99.90
3051;DHT22;1535;51.098;6.414;2023-08-01T11:40:26;22.10;99.90
3051;DHT22;1535;51.098;6.414;2023-08-01T11:42:56;22.10;99.90
3051;DHT22;1535;51.098;6.414;2023-08-01T11:45:24;21.20;99.90
3051;DHT22;1535;51.098;6.414;2023-08-01T11:47:51;20.80;99.90
3051;DHT22;1535;51.098;6.414;2023-08-01T11:50:23;20.90;99.90
3051;DHT22;1535;51.098;6.414;2023-08-01T11:52:50;20.70;99.90
3051;DHT22;1535;51.098;6.414;2023-08-01T11:55:22;20.20;99.90
3051;DHT22;1535;51.098;6.414;2023-08-01T11:57:56;19.60;99.90
3051;DHT22;1535;51.098;6.414;2023-08-01T12:00:24;19.20;99.90
3051;DHT22;1535;51.098;6.414;2023-08-01T12:02:52;19.30;99.90
3051;DHT22;1535;51.098;6.414;2023-08-01T12:05:30;20.20;99.90
3051;DHT22;1535;51.098;6.414;2023-08-01T12:08:08;21.30;99.90
3051;DHT22;1535;51.098;6.414;2023-08-01T12:10:37;21.90;99.90
3051;DHT22;1535;51.098;6.414;2023-08-01T12:13:05;22.30;99.90
3051;DHT22;1535;51.098;6.414;2023-08-01T12:15:32;22.70;99.90
3051;DHT22;1535;51.098;6.414;2023-08-01T12:17:58;23.00;99.90
3051;DHT22;1535;51.098;6.414;2023-08-01T12:20:26;22.50;99.90
3051;DHT22;1535;51.098;6.414;2023-08-01T12:22:54;22.30;99.90
3051;DHT22;1535;51.098;6.414;2023-08-01T12:25:21;22.00;99.90
3051;DHT22;1535;51.098;6.414;2023-08-01T12:27:48;21.50;99.90
3051;DHT22;1535;51.098;6.414;2023-08-01T12:30:15;20.80;99.90
3051;DHT22;1535;51.098;6.414;2023-08-01T12:32:43;20.40;99.90
3051;DHT22;1535;51.098;6.414;2023-08-01T12:35:10;19.80;99.90
3051;DHT22;1535;51.098;6.414;2023-08-01T12:37:37;19.50;99.90
3051;DHT22;1535;51.098;6.414;2023-08-01T12:40:07;19.50;99.90
3051;DHT22;1535;51.098;6.414;2023-08-01T12:42:35;19.60;99.90
3051;DHT22;1535;51.098;6.414;2023-08-01T12:45:03;19.50;99.90
3051;DHT22;1535;51.098;6.414;2023-08-01T12:47:31;19.80;99.90
3051;DHT22;1535;51.098;6.414;2023-08-01T12:49:57;20.40;99.90
3051;DHT22;1535;51.098;6.414;2023-08-01T12:52:25;20.40;99.90
3051;DHT22;1535;51.098;6.414;2023-08-01T12:54:51;20.00;99.90
3051;DHT22;1535;51.098;6.414;2023-08-01T12:57:20;19.80;99.90
3051;DHT22;1535;51.098;6.414;2023-08-01T12:59:46;19.50;99.90
3051;DHT22;1535;51.098;6.414;2023-08-01T13:02:15;19.30;99.90
3051;DHT22;1535;51.098;6.414;2023-08-01T13:04:42;19.30;99.90
3051;DHT22;1535;51.098;6.414;2023-08-01T13:07:09;19.40;99.90
3051;DHT22;1535;51.098;6.414;2023-08-01T13:09:36;19.80;99.90
3051;DHT22;1535;51.098;6.414;2023-08-01T13:12:04;20.70;99.90
3051;DHT22;1535;51.098;6.414;2023-08-01T13:14:34;21.00;99.90
3051;DHT22;1535;51.098;6.414;2023-08-01T13:17:01;21.60;99.90
3051;DHT22;1535;51.098;6.414;2023-08-01T13:19:28;21.90;99.90
3051;DHT22;1535;51.098;6.414;2023-08-01T13:21:55;21.90;99.90
3051;DHT22;1535;51.098;6.414;2023-08-01T13:24:23;21.50;99.90
3051;DHT22;1535;51.098;6.414;2023-08-01T13:26:50;21.30;99.90
3051;DHT22;1535;51.098;6.414;2023-08-01T13:29:16;21.30;99.90
3051;DHT22;1535;51.098;6.414;2023-08-01T13:31:45;22.30;99.90
3051;DHT22;1535;51.098;6.414;2023-08-01T13:34:14;23.20;99.90
3051;DHT22;1535;51.098;6.414;2023-08-01T13:36:42;24.00;99.90
3051;DHT22;1535;51.098;6.414;2023-08-01T13:39:10;24.10;99.90
3051;DHT22;1535;51.098;6.414;2023-08-01T13:41:36;23.60;99.90
3051;DHT22;1535;51.098;6.414;2023-08-01T13:44:04;22.70;99.90
3051;DHT22;1535;51.098;6.414;2023-08-01T13:46:31;22.20;99.90
3051;DHT22;1535;51.098;6.414;2023-08-01T13:48:59;22.10;99.90
3051;DHT22;1535;51.098;6.414;2023-08-01T13:51:26;22.60;99.90
3051;DHT22;1535;51.098;6.414;2023-08-01T13:53:52;23.50;99.90
3051;DHT22;1535;51.098;6.414;2023-08-01T13:56:20;23.40;99.90
3051;DHT22;1535;51.098;6.414;2023-08-01T13:58:47;23.30;99.90
3051;DHT22;1535;51.098;6.414;2023-08-01T14:01:14;23.00;99.90
3051;DHT22;1535;51.098;6.414;2023-08-01T14:03:42;22.80;99.90
3051;DHT22;1535;51.098;6.414;2023-08-01T14:06:11;22.80;99.90
3051;DHT22;1535;51.098;6.414;2023-08-01T14:08:39;22.90;99.90
3051;DHT22;1535;51.098;6.414;2023-08-01T14:11:07;22.80;99.90
3051;DHT22;1535;51.098;6.414;2023-08-01T14:13:35;22.80;99.90
3051;DHT22;1535;51.098;6.414;2023-08-01T14:16:02;22.60;99.90
3051;DHT22;1535;51.098;6.414;2023-08-01T14:18:30;22.90;99.90
3051;DHT22;1535;51.098;6.414;2023-08-01T14:20:57;23.10;99.90
3051;DHT22;1535;51.098;6.414;2023-08-01T14:23:27;23.50;99.90
3051;DHT22;1535;51.098;6.414;2023-08-01T14:25:57;24.10;99.90
3051;DHT22;1535;51.098;6.414;2023-08-01T14:28:24;23.90;99.90
3051;DHT22;1535;51.098;6.414;2023-08-01T14:30:51;24.30;99.90
3051;DHT22;1535;51.098;6.414;2023-08-01T14:33:18;24.50;99.90
3051;DHT22;1535;51.098;6.414;2023-08-01T14:35:47;24.30;99.90
3051;DHT22;1535;51.098;6.414;2023-08-01T14:38:15;24.10;99.90
3051;DHT22;1535;51.098;6.414;2023-08-01T14:40:43;23.90;99.90
3051;DHT22;1535;51.098;6.414;2023-08-01T14:43:10;23.70;99.90
3051;DHT22;1535;51.098;6.414;2023-08-01T14:45:38;23.30;99.90
3051;DHT22;1535;51.098;6.414;2023-08-01T14:48:05;22.90;99.90
3051;DHT22;1535;51.098;6.414;2023-08-01T14:50:32;22.50;99.90
3051;DHT22;1535;51.098;6.414;2023-08-01T14:52:59;22.20;99.90
3051;DHT22;1535;51.098;6.414;2023-08-01T14:55:27;22.00;99.90
3051;DHT22;1535;51.098;6.414;2023-08-01T14:57:55;21.90;99.90
3051;DHT22;1535;51.098;6.414;2023-08-01T15:00:22;21.70;99.90
3051;DHT22;1535;51.098;6.414;2023-08-01T15:02:48;21.60;99.90
3051;DHT22;1535;51.098;6.414;2023-08-01T15:05:16;21.30;99.90
3051;DHT22;1535;51.098;6.414;2023-08-01T15:07:42;21.30;99.90
3051;DHT22;1535;51.098;6.414;2023-08-01T15:10:12;21.20;99.90
3051;DHT22;1535;51.098;6.414;2023-08-01T15:12:39;21.50;99.90
3051;DHT22;1535;51.098;6.414;2023-08-01T15:15:09;22.80;99.90
3051;DHT22;1535;51.098;6.414;2023-08-01T15:17:36;23.50;99.90
3051;DHT22;1535;51.098;6.414;2023-08-01T15:20:04;23.70;99.90
3051;DHT22;1535;51.098;6.414;2023-08-01T15:22:32;23.20;99.90
3051;DHT22;1535;51.098;6.414;2023-08-01T15:25:01;23.10;99.90
3051;DHT22;1535;51.098;6.414;2023-08-01T15:27:27;22.90;99.90
3051;DHT22;1535;51.098;6.414;2023-08-01T15:29:54;23.10;99.90
3051;DHT22;1535;51.098;6.414;2023-08-01T15:32:24;23.40;99.90
3051;DHT22;1535;51.098;6.414;2023-08-01T15:34:51;22.60;99.90
3051;DHT22;1535;51.098;6.414;2023-08-01T15:37:18;22.50;99.90
3051;DHT22;1535;51.098;6.414;2023-08-01T15:39:45;22.20;99.90
3051;DHT22;1535;51.098;6.414;2023-08-01T15:42:12;21.70;99.90
3051;DHT22;1535;51.098;6.414;2023-08-01T15:44:39;21.50;99.90
3051;DHT22;1535;51.098;6.414;2023-08-01T15:47:06;21.50;99.90
3051;DHT22;1535;51.098;6.414;2023-08-01T15:49:34;21.20;99.90
3051;DHT22;1535;51.098;6.414;2023-08-01T15:52:01;21.10;99.90
3051;DHT22;1535;51.098;6.414;2023-08-01T15:54:28;21.20;99.90
3051;DHT22;1535;51.098;6.414;2023-08-01T15:56:58;21.20;99.90
3051;DHT22;1535;51.098;6.414;2023-08-01T15:59:25;21.30;99.90
3051;DHT22;1535;51.098;6.414;2023-08-01T16:01:52;21.60;99.90
3051;DHT22;1535;51.098;6.414;2023-08-01T16:04:19;22.00;99.90
3051;DHT22;1535;51.098;6.414;2023-08-01T16:06:47;22.90;99.90